createdAt,value
2022-11-28T00:01:47.048Z,6.47
2022-11-28T00:06:50.868Z,5.57
2022-11-28T00:11:54.611Z,7.28
2022-11-28T00:16:59.853Z,7.00
2022-11-28T00:22:03.815Z,6.05
2022-11-28T00:27:07.752Z,4.82
2022-11-28T00:32:14.762Z,8.65
2022-11-28T00:37:18.421Z,6.75
2022-11-28T00:42:22.432Z,4.50
2022-11-28T00:47:27.435Z,6.57
2022-11-28T00:52:33.235Z,5.07
2022-11-28T00:57:37.034Z,5.35
2022-11-28T01:02:42.179Z,4.07
2022-11-28T01:07:46.008Z,3.10
2022-11-28T01:12:49.722Z,8.48
2022-11-28T01:17:54.715Z,5.13
2022-11-28T01:22:58.381Z,5.90
2022-11-28T01:28:02.052Z,3.40
2022-11-28T01:33:07.219Z,5.15
2022-11-28T01:38:10.858Z,5.35
2022-11-28T01:43:14.523Z,4.65
2022-11-28T01:48:24.421Z,9.68
2022-11-28T01:53:29.693Z,5.43
2022-11-28T01:58:35.419Z,5.47
2022-11-28T02:03:45.243Z,4.88
2022-11-28T02:08:52.482Z,4.10
2022-11-28T02:19:37.848Z,4.97
2022-11-28T02:24:56.928Z,4.25
2022-11-28T02:30:11.639Z,5.85
2022-11-28T02:35:22.694Z,3.90
2022-11-28T02:40:30.452Z,6.57
2022-11-28T02:45:42.829Z,4.28
2022-11-28T02:50:54.426Z,4.13
2022-11-28T02:56:00.112Z,4.53
2022-11-28T03:01:04.558Z,3.53
2022-11-28T03:06:17.825Z,4.63
2022-11-28T03:11:30.002Z,4.25
2022-11-28T03:16:41.513Z,4.32
2022-11-28T03:21:52.396Z,4.68
2022-11-28T03:26:59.298Z,4.57
2022-11-28T03:32:08.058Z,4.07
2022-11-28T03:37:17.452Z,3.50
2022-11-28T03:42:24.789Z,4.70
2022-11-28T03:47:32.091Z,5.82
2022-11-28T03:52:41.882Z,6.90
2022-11-28T03:57:52.361Z,5.85
2022-11-28T04:03:03.498Z,4.47
2022-11-28T04:08:17.724Z,3.67
2022-11-28T04:13:25.156Z,5.80
2022-11-28T04:18:32.893Z,4.18
2022-11-28T04:23:41.392Z,3.88
2022-11-28T04:28:47.948Z,4.20
2022-11-28T04:33:57.690Z,5.05
2022-11-28T04:39:04.808Z,3.92
2022-11-28T04:49:15.147Z,3.90
2022-11-28T04:54:25.450Z,3.30
2022-11-28T04:59:31.914Z,4.55
2022-11-28T05:04:39.107Z,3.33
2022-11-28T05:14:47.648Z,4.25
2022-11-28T05:19:51.269Z,4.43
2022-11-28T05:24:56.366Z,3.90
2022-11-28T05:30:00.008Z,4.07
2022-11-28T05:35:04.417Z,6.30
2022-11-28T05:40:10.679Z,4.00
2022-11-28T05:45:14.318Z,3.90
2022-11-28T05:50:18.014Z,6.80
2022-11-28T05:55:23.148Z,8.57
2022-11-28T06:00:26.951Z,5.88
2022-11-28T06:05:42.307Z,7.15
2022-11-28T06:10:57.965Z,9.10
2022-11-28T06:16:01.685Z,8.95
2022-11-28T06:21:06.800Z,9.45
2022-11-28T06:26:13.413Z,10.27
2022-11-28T06:31:18.660Z,12.38
2022-11-28T06:36:23.455Z,14.85
2022-11-28T06:41:28.435Z,13.93
2022-11-28T06:46:32.044Z,14.45
2022-11-28T06:51:35.780Z,18.50
2022-11-28T06:56:41.109Z,16.30
2022-11-28T07:01:45.571Z,18.10
2022-11-28T07:06:49.398Z,21.35
2022-11-28T07:11:54.500Z,18.90
2022-11-28T07:16:58.319Z,20.27
2022-11-28T07:22:02.211Z,25.85
2022-11-28T07:27:07.358Z,24.23
2022-11-28T07:32:11.314Z,24.02
2022-11-28T07:37:16.099Z,27.95
2022-11-28T07:42:21.166Z,29.35
2022-11-28T07:47:39.699Z,31.58
2022-11-28T07:52:43.418Z,30.33
2022-11-28T07:57:48.474Z,38.03
2022-11-28T08:02:52.386Z,34.45
2022-11-28T08:07:56.131Z,40.75
2022-11-28T08:13:01.415Z,36.10
2022-11-28T08:18:05.277Z,31.77
2022-11-28T08:23:09.080Z,27.23
2022-11-28T08:28:14.225Z,27.80
2022-11-28T08:33:18.073Z,28.77
2022-11-28T08:38:21.816Z,30.33
2022-11-28T08:43:26.934Z,34.00
2022-11-28T08:48:30.992Z,23.40
2022-11-28T08:53:35.076Z,24.90
2022-11-28T08:58:40.567Z,26.83
2022-11-28T09:03:44.333Z,23.27
2022-11-28T09:08:48.745Z,21.20
2022-11-28T09:13:54.151Z,21.52
2022-11-28T09:18:59.416Z,25.65
2022-11-28T09:24:03.233Z,23.10
2022-11-28T09:29:08.362Z,25.02
2022-11-28T09:34:12.212Z,20.95
2022-11-28T09:39:16.928Z,30.88
2022-11-28T09:44:26.332Z,30.63
2022-11-28T09:49:40.670Z,32.92
2022-11-28T09:54:52.191Z,33.33
2022-11-28T09:59:57.219Z,31.10
2022-11-28T10:05:14.866Z,30.45
2022-11-28T10:10:24.692Z,27.20
2022-11-28T10:15:40.471Z,32.72
2022-11-28T10:20:48.009Z,29.10
2022-11-28T10:25:56.639Z,31.75
2022-11-28T10:31:08.231Z,31.42
2022-11-28T10:36:22.313Z,39.20
2022-11-28T10:41:33.261Z,40.95
2022-11-28T10:46:51.971Z,42.90
2022-11-28T10:52:04.511Z,49.72
2022-11-28T10:57:13.378Z,41.60
2022-11-28T11:02:27.833Z,48.03
2022-11-28T11:07:33.169Z,45.58
2022-11-28T11:12:36.937Z,47.13
2022-11-28T11:17:42.005Z,47.08
2022-11-28T11:22:55.725Z,52.35
2022-11-28T11:28:01.784Z,52.97
2022-11-28T11:33:14.136Z,56.28
2022-11-28T11:38:37.926Z,61.13
2022-11-28T11:43:41.950Z,59.55
2022-11-28T11:48:49.005Z,51.30
2022-11-28T11:54:04.331Z,60.92
2022-11-28T11:59:15.556Z,50.60
2022-11-28T12:04:44.681Z,49.17
2022-11-28T12:15:22.569Z,57.90
2022-11-28T12:20:47.513Z,47.97
2022-11-28T12:25:54.987Z,54.50
2022-11-28T12:31:10.600Z,63.22
2022-11-28T12:36:22.157Z,58.10
2022-11-28T12:41:46.496Z,44.83
2022-11-28T12:46:58.003Z,49.20
2022-11-28T12:52:23.367Z,58.90
2022-11-28T12:57:35.519Z,56.15
2022-11-28T13:02:50.650Z,53.15
2022-11-28T13:08:15.078Z,57.65
2022-11-28T13:13:24.047Z,55.28
2022-11-28T13:18:40.802Z,68.43
2022-11-28T13:23:52.414Z,64.28
2022-11-28T13:29:03.018Z,60.83
2022-11-28T13:34:12.650Z,66.70
2022-11-28T13:39:27.066Z,62.78
2022-11-28T13:44:37.528Z,64.40
2022-11-28T13:49:41.163Z,52.38
2022-11-28T13:54:52.597Z,54.70
2022-11-28T14:00:07.163Z,57.28
2022-11-28T14:05:38.680Z,51.10
2022-11-28T14:10:59.863Z,69.95
2022-11-28T14:16:17.851Z,51.42
2022-11-28T14:21:28.699Z,56.08
2022-11-28T14:26:36.323Z,60.83
2022-11-28T14:31:55.216Z,53.72
2022-11-28T14:37:38.033Z,48.28
2022-11-28T14:43:00.421Z,54.55
2022-11-28T14:48:30.049Z,52.08
2022-11-28T14:53:45.836Z,42.42
2022-11-28T14:58:53.701Z,54.58
2022-11-28T15:04:06.069Z,43.60
2022-11-28T15:09:18.667Z,47.30
2022-11-28T15:14:24.750Z,52.70
2022-11-28T15:19:31.912Z,52.67
2022-11-28T15:24:39.100Z,49.95
2022-11-28T15:29:53.573Z,45.78
2022-11-28T15:35:01.204Z,49.60
2022-11-28T15:40:07.175Z,50.28
2022-11-28T15:45:24.692Z,47.05
2022-11-28T15:50:34.795Z,46.72
2022-11-28T15:55:40.186Z,45.45
2022-11-28T16:00:49.746Z,50.05
2022-11-28T16:05:58.119Z,48.83
2022-11-28T16:11:04.312Z,47.37
2022-11-28T16:16:15.337Z,42.85
2022-11-28T16:21:19.240Z,41.55
2022-11-28T16:26:29.851Z,48.28
2022-11-28T16:31:36.023Z,48.45
2022-11-28T16:36:40.484Z,48.13
2022-11-28T16:41:51.952Z,37.03
2022-11-28T16:46:58.995Z,43.88
2022-11-28T16:52:45.603Z,43.53
2022-11-28T16:57:54.989Z,38.33
2022-11-28T17:03:00.081Z,40.53
2022-11-28T17:08:03.952Z,42.25
2022-11-28T17:13:08.492Z,35.47
2022-11-28T17:18:13.812Z,36.83
2022-11-28T17:23:24.737Z,43.58
2022-11-28T17:28:29.320Z,42.80
2022-11-28T17:33:34.972Z,37.35
2022-11-28T17:38:38.895Z,32.78
2022-11-28T17:43:43.036Z,38.78
2022-11-28T17:48:48.120Z,31.95
2022-11-28T17:53:53.982Z,24.00
2022-11-28T17:58:57.864Z,37.05
2022-11-28T18:04:04.604Z,38.97
2022-11-28T18:09:12.015Z,39.72
2022-11-28T18:14:19.622Z,35.00
2022-11-28T18:19:25.577Z,30.85
2022-11-28T18:24:29.771Z,32.35
2022-11-28T18:29:34.417Z,42.40
2022-11-28T18:34:39.562Z,37.15
2022-11-28T18:39:43.646Z,38.22
2022-11-28T18:44:47.818Z,45.58
2022-11-28T18:49:53.066Z,39.72
2022-11-28T18:54:56.760Z,37.55
2022-11-28T19:00:01.471Z,38.22
2022-11-28T19:05:08.150Z,49.63
2022-11-28T19:10:12.724Z,35.28
2022-11-28T19:15:16.747Z,37.30
2022-11-28T19:20:22.558Z,36.75
2022-11-28T19:25:27.677Z,42.78
2022-11-28T19:30:31.737Z,35.95
2022-11-28T19:35:36.870Z,38.83
2022-11-28T19:40:40.846Z,33.13
2022-11-28T19:45:44.706Z,34.60
2022-11-28T19:50:51.253Z,30.17
2022-11-28T19:55:55.777Z,29.15
2022-11-28T20:01:05.925Z,44.05
2022-11-28T20:06:12.819Z,34.75
2022-11-28T20:11:18.606Z,23.88
2022-11-28T20:16:22.618Z,28.52
2022-11-28T20:21:28.543Z,37.25
2022-11-28T20:26:34.923Z,44.67
2022-11-28T20:31:45.559Z,37.17
2022-11-28T20:36:54.289Z,32.97
2022-11-28T20:41:58.038Z,28.25
2022-11-28T20:47:01.994Z,33.00
2022-11-28T20:52:07.167Z,32.13
2022-11-28T20:57:21.340Z,31.25
2022-11-28T21:02:26.213Z,40.88
2022-11-28T21:07:31.743Z,30.60
2022-11-28T21:12:35.639Z,42.75
2022-11-28T21:17:39.457Z,33.63
2022-11-28T21:22:44.591Z,31.20
2022-11-28T21:27:48.890Z,37.28
2022-11-28T21:32:52.776Z,33.95
2022-11-28T21:37:58.694Z,31.05
2022-11-28T21:43:02.551Z,33.67
2022-11-28T21:48:06.653Z,40.90
2022-11-28T21:53:11.754Z,29.90
2022-11-28T21:58:15.447Z,33.70
2022-11-28T22:03:21.208Z,32.63
2022-11-28T22:08:26.854Z,36.45
2022-11-28T22:13:32.282Z,41.08
2022-11-28T22:18:36.047Z,31.85
2022-11-28T22:23:41.476Z,39.28
2022-11-28T22:28:49.111Z,39.17
2022-11-28T22:33:57.326Z,34.72
2022-11-28T22:39:02.969Z,36.90
2022-11-28T22:44:07.394Z,36.88
2022-11-28T22:49:11.475Z,31.13
2022-11-28T22:54:16.799Z,27.70
2022-11-28T22:59:20.819Z,35.88
2022-11-28T23:04:26.171Z,30.40
2022-11-28T23:09:31.295Z,27.70
2022-11-28T23:14:35.159Z,27.83
2022-11-28T23:19:40.147Z,34.65
2022-11-28T23:24:46.042Z,32.65
2022-11-28T23:29:49.999Z,29.40
2022-11-28T23:34:54.466Z,29.00
2022-11-28T23:39:59.507Z,30.48
2022-11-28T23:45:03.311Z,32.95
2022-11-28T23:50:08.491Z,30.02
2022-11-28T23:55:13.557Z,27.48
